createdAt,value
2019-03-01T00:00:29.296Z,35.63
2019-03-01T00:02:57.595Z,36.10
2019-03-01T00:05:33.523Z,34.87
2019-03-01T00:08:15.155Z,36.23
2019-03-01T00:10:51.107Z,35.17
2019-03-01T00:13:23.728Z,35.50
2019-03-01T00:15:53.802Z,35.00
2019-03-01T00:18:23.981Z,34.10
2019-03-01T00:20:56.775Z,36.00
2019-03-01T00:23:44.587Z,35.00
2019-03-01T00:26:14.465Z,33.93
2019-03-01T00:28:47.592Z,36.70
2019-03-01T00:31:17.440Z,35.03
2019-03-01T00:33:56.234Z,38.63
2019-03-01T00:36:38.682Z,35.17
2019-03-01T00:39:14.643Z,34.50
2019-03-01T00:42:01.232Z,37.50
2019-03-01T00:44:33.957Z,35.17
2019-03-01T00:47:02.389Z,35.83
2019-03-01T00:49:32.172Z,35.80
2019-03-01T00:52:00.327Z,35.57
2019-03-01T00:54:28.852Z,34.83
2019-03-01T00:56:57.302Z,38.70
2019-03-01T00:59:25.460Z,35.83
2019-03-01T01:01:53.613Z,35.80
2019-03-01T01:04:21.924Z,36.77
2019-03-01T01:06:50.086Z,36.73
2019-03-01T01:09:18.474Z,36.93
2019-03-01T01:11:46.847Z,37.47
2019-03-01T01:14:15.321Z,36.90
2019-03-01T01:16:43.480Z,37.20
2019-03-01T01:19:11.984Z,36.63
2019-03-01T01:21:40.195Z,38.00
2019-03-01T01:24:09.671Z,38.87
2019-03-01T01:26:38.374Z,39.07
2019-03-01T01:29:06.804Z,38.47
2019-03-01T01:31:35.302Z,38.57
2019-03-01T01:34:03.777Z,38.23
2019-03-01T01:36:32.186Z,40.70
2019-03-01T01:39:00.290Z,39.57
2019-03-01T01:41:28.488Z,37.43
2019-03-01T01:43:56.645Z,38.63
2019-03-01T01:46:24.804Z,37.70
2019-03-01T01:48:53.260Z,38.93
2019-03-01T01:51:21.416Z,37.87
2019-03-01T01:53:49.783Z,41.33
2019-03-01T01:56:17.972Z,37.87
2019-03-01T01:58:46.136Z,37.87
2019-03-01T02:01:14.293Z,36.93
2019-03-01T02:03:42.481Z,36.93
2019-03-01T02:06:10.640Z,36.73
2019-03-01T02:08:38.798Z,37.90
2019-03-01T02:11:06.989Z,39.43
2019-03-01T02:13:35.356Z,36.10
2019-03-01T02:16:03.578Z,37.13
2019-03-01T02:18:31.800Z,36.20
2019-03-01T02:20:59.965Z,37.87
2019-03-01T02:23:28.189Z,38.57
2019-03-01T02:25:56.513Z,36.17
2019-03-01T02:28:24.763Z,36.70
2019-03-01T02:30:54.536Z,35.53
2019-03-01T02:33:22.750Z,37.97
2019-03-01T02:35:50.907Z,38.23
2019-03-01T02:38:19.154Z,38.80
2019-03-01T02:40:47.376Z,38.07
2019-03-01T02:43:15.533Z,38.30
2019-03-01T02:45:43.702Z,38.33
2019-03-01T02:48:11.896Z,38.67
2019-03-01T02:50:40.053Z,36.90
2019-03-01T02:53:08.210Z,38.03
2019-03-01T02:55:36.413Z,42.13
2019-03-01T02:58:04.584Z,37.80
2019-03-01T03:00:32.788Z,38.30
2019-03-01T03:03:00.985Z,35.43
2019-03-01T03:05:29.237Z,37.10
2019-03-01T03:07:59.041Z,35.10
2019-03-01T03:10:27.298Z,32.87
2019-03-01T03:12:57.021Z,34.23
2019-03-01T03:15:29.901Z,34.73
2019-03-01T03:17:58.154Z,34.97
2019-03-01T03:20:26.260Z,33.30
2019-03-01T03:22:54.729Z,33.60
2019-03-01T03:25:22.929Z,34.93
2019-03-01T03:27:52.278Z,35.30
2019-03-01T03:30:20.843Z,33.50
2019-03-01T03:32:49.029Z,35.40
2019-03-01T03:35:17.444Z,35.63
2019-03-01T03:37:45.709Z,35.87
2019-03-01T03:40:14.585Z,41.23
2019-03-01T03:42:42.910Z,39.23
2019-03-01T03:45:13.051Z,34.00
2019-03-01T03:47:41.737Z,36.63
2019-03-01T03:50:10.974Z,35.17
2019-03-01T03:52:39.280Z,34.67
2019-03-01T03:55:09.398Z,37.03
2019-03-01T03:57:38.113Z,36.57
2019-03-01T04:00:07.901Z,34.97
2019-03-01T04:02:36.341Z,36.00
2019-03-01T04:05:06.314Z,34.90
2019-03-01T04:07:34.832Z,36.57
2019-03-01T04:10:03.248Z,37.87
2019-03-01T04:12:31.517Z,30.23
2019-03-01T04:14:59.910Z,36.90
2019-03-01T04:17:28.373Z,41.87
2019-03-01T04:19:56.869Z,40.13
2019-03-01T04:22:25.492Z,43.10
2019-03-01T04:24:54.052Z,41.07
2019-03-01T04:27:22.480Z,38.47
2019-03-01T04:29:51.761Z,39.63
2019-03-01T04:32:20.069Z,38.43
2019-03-01T04:34:48.225Z,39.37
2019-03-01T04:37:16.383Z,38.93
2019-03-01T04:39:44.644Z,40.47
2019-03-01T04:42:13.173Z,37.77
2019-03-01T04:44:41.331Z,39.57
2019-03-01T04:47:09.889Z,38.67
2019-03-01T04:49:38.514Z,37.37
2019-03-01T04:52:24.793Z,39.80
2019-03-01T04:54:53.221Z,39.17
2019-03-01T04:57:21.668Z,54.37
2019-03-01T04:59:50.049Z,40.80
2019-03-01T05:02:18.206Z,39.70
2019-03-01T05:04:46.439Z,37.83
2019-03-01T05:07:14.860Z,36.40
2019-03-01T05:09:43.093Z,36.73
2019-03-01T05:12:11.601Z,34.10
2019-03-01T05:14:39.799Z,35.53
2019-03-01T05:17:07.958Z,35.40
2019-03-01T05:19:36.248Z,35.73
2019-03-01T05:22:04.773Z,38.13
2019-03-01T05:24:33.103Z,37.47
2019-03-01T05:27:01.428Z,44.57
2019-03-01T05:29:29.553Z,37.77
2019-03-01T05:31:58.874Z,36.83
2019-03-01T05:37:26.617Z,35.83
2019-03-01T05:39:55.046Z,41.00
2019-03-01T05:42:23.573Z,38.93
2019-03-01T05:44:52.204Z,35.70
2019-03-01T05:47:20.653Z,34.80
2019-03-01T05:49:49.064Z,36.30
2019-03-01T05:52:17.275Z,33.37
2019-03-01T05:54:45.432Z,37.20
2019-03-01T05:57:13.593Z,36.43
2019-03-01T05:59:42.170Z,35.37
2019-03-01T06:02:12.085Z,35.43
2019-03-01T06:04:47.688Z,34.10
2019-03-01T06:07:23.276Z,36.40
2019-03-01T06:10:05.358Z,38.33
2019-03-01T06:12:38.222Z,40.23
2019-03-01T06:15:08.273Z,39.83
2019-03-01T06:17:54.531Z,39.70
2019-03-01T06:20:27.224Z,42.93
2019-03-01T06:22:57.221Z,41.13
2019-03-01T06:25:33.472Z,41.57
2019-03-01T06:28:19.090Z,40.73
2019-03-01T06:30:51.863Z,37.40
2019-03-01T06:33:27.428Z,40.70
2019-03-01T06:35:57.219Z,39.70
2019-03-01T06:38:49.862Z,38.53
2019-03-01T06:41:30.725Z,37.57
2019-03-01T06:44:03.936Z,38.50
2019-03-01T06:46:33.789Z,41.47
2019-03-01T06:49:03.656Z,41.47
2019-03-01T06:51:32.104Z,41.43
2019-03-01T06:54:00.535Z,43.00
2019-03-01T06:56:28.687Z,42.73
2019-03-01T06:58:57.507Z,41.50
2019-03-01T07:01:26.835Z,45.80
2019-03-01T07:03:55.508Z,44.73
2019-03-01T07:06:23.706Z,45.37
2019-03-01T07:08:52.140Z,47.00
2019-03-01T07:11:20.467Z,49.27
2019-03-01T07:13:48.665Z,46.90
2019-03-01T07:16:17.228Z,48.43
2019-03-01T07:18:45.458Z,45.30
2019-03-01T07:21:13.644Z,46.63
2019-03-01T07:23:42.078Z,49.37
2019-03-01T07:26:10.225Z,44.90
2019-03-01T07:28:38.723Z,44.20
2019-03-01T07:31:07.203Z,47.63
2019-03-01T07:33:35.549Z,46.03
2019-03-01T07:36:04.641Z,48.67
2019-03-01T07:38:32.807Z,46.40
2019-03-01T07:41:01.123Z,45.67
2019-03-01T07:43:29.788Z,45.17
2019-03-01T07:45:58.152Z,43.67
2019-03-01T07:48:26.353Z,45.40
2019-03-01T07:50:55.266Z,42.17
2019-03-01T07:53:24.284Z,38.27
2019-03-01T07:55:52.844Z,39.47
2019-03-01T07:58:21.525Z,40.63
2019-03-01T08:00:53.606Z,40.30
2019-03-01T08:03:20.919Z,42.10
2019-03-01T08:05:49.301Z,43.77
2019-03-01T08:08:17.461Z,43.17
2019-03-01T08:10:45.834Z,42.70
2019-03-01T08:13:14.734Z,42.70
2019-03-01T08:15:45.019Z,45.63
2019-03-01T08:18:17.263Z,41.27
2019-03-01T08:20:45.464Z,43.47
2019-03-01T08:23:14.487Z,47.67
2019-03-01T08:25:42.740Z,48.30
2019-03-01T08:28:11.563Z,48.63
2019-03-01T08:30:42.554Z,49.13
2019-03-01T08:33:10.154Z,45.47
2019-03-01T08:35:38.739Z,48.20
2019-03-01T08:38:07.967Z,49.37
2019-03-01T08:40:36.456Z,44.27
2019-03-01T08:43:04.693Z,49.50
2019-03-01T08:45:33.690Z,50.10
2019-03-01T08:48:02.015Z,49.73
2019-03-01T08:50:30.550Z,48.37
2019-03-01T08:52:58.831Z,49.97
2019-03-01T08:55:29.022Z,50.70
2019-03-01T08:57:59.665Z,51.03
2019-03-01T09:00:30.114Z,50.43
2019-03-01T09:03:00.368Z,53.43
2019-03-01T09:05:29.416Z,52.97
2019-03-01T09:07:57.811Z,53.40
2019-03-01T09:10:29.133Z,53.37
2019-03-01T09:12:56.240Z,58.40
2019-03-01T09:15:24.807Z,53.23
2019-03-01T09:17:53.347Z,52.70
2019-03-01T09:20:32.389Z,51.83
2019-03-01T09:22:59.309Z,52.53
2019-03-01T09:25:27.852Z,52.93
2019-03-01T09:27:57.598Z,55.33
2019-03-01T09:30:26.255Z,52.77
2019-03-01T09:32:54.852Z,50.13
2019-03-01T09:35:42.781Z,53.57
2019-03-01T09:38:11.449Z,51.87
2019-03-01T09:40:39.784Z,72.57
2019-03-01T09:43:08.133Z,54.97
2019-03-01T09:45:36.893Z,52.10
2019-03-01T09:48:05.266Z,49.67
2019-03-01T09:50:34.488Z,48.93
2019-03-01T09:53:08.884Z,49.03
2019-03-01T09:55:37.565Z,48.57
2019-03-01T09:58:08.397Z,48.87
2019-03-01T10:00:43.857Z,48.10
2019-03-01T10:03:12.089Z,49.17
2019-03-01T10:05:40.731Z,51.87
2019-03-01T10:08:09.421Z,47.37
2019-03-01T10:10:37.576Z,48.90
2019-03-01T10:13:05.914Z,48.10
2019-03-01T10:15:34.664Z,49.17
2019-03-01T10:18:02.954Z,49.43
2019-03-01T10:20:31.152Z,49.93
2019-03-01T10:22:59.527Z,49.03
2019-03-01T10:25:27.893Z,49.17
2019-03-01T10:27:56.049Z,51.00
2019-03-01T10:30:25.210Z,57.90
2019-03-01T10:32:53.553Z,50.30
2019-03-01T10:35:21.866Z,49.60
2019-03-01T10:37:50.491Z,50.03
2019-03-01T10:40:23.412Z,52.67
2019-03-01T10:42:51.650Z,50.77
2019-03-01T10:45:21.970Z,48.93
2019-03-01T10:47:50.657Z,52.23
2019-03-01T10:50:19.465Z,52.13
2019-03-01T10:52:47.651Z,53.77
2019-03-01T10:55:17.904Z,51.90
2019-03-01T10:57:46.751Z,53.10
2019-03-01T11:00:22.812Z,50.27
2019-03-01T11:02:51.025Z,51.50
2019-03-01T11:05:19.389Z,73.33
2019-03-01T11:07:48.234Z,48.93
2019-03-01T11:10:18.115Z,51.17
2019-03-01T11:12:46.635Z,50.37
2019-03-01T11:15:15.187Z,50.10
2019-03-01T11:17:44.270Z,49.83
2019-03-01T11:20:17.683Z,51.23
2019-03-01T11:22:46.036Z,52.40
2019-03-01T11:25:15.480Z,51.23
2019-03-01T11:27:48.583Z,51.23
2019-03-01T11:30:23.516Z,50.43
2019-03-01T11:32:51.738Z,50.37
2019-03-01T11:35:20.001Z,51.40
2019-03-01T11:37:48.302Z,51.13
2019-03-01T11:40:17.904Z,49.53
2019-03-01T11:42:48.176Z,47.70
2019-03-01T11:45:17.142Z,45.23
2019-03-01T11:47:46.057Z,42.73
2019-03-01T11:50:23.824Z,43.47
2019-03-01T11:52:52.148Z,46.03
2019-03-01T11:55:20.923Z,47.63
2019-03-01T11:57:49.824Z,47.10
2019-03-01T12:00:23.391Z,47.27
2019-03-01T12:02:51.639Z,49.17
2019-03-01T12:05:20.425Z,48.70
2019-03-01T12:07:55.386Z,50.63
2019-03-01T12:10:30.451Z,47.53
2019-03-01T12:12:58.766Z,47.93
2019-03-01T12:15:27.591Z,48.53
2019-03-01T12:17:56.057Z,49.47
2019-03-01T12:20:26.017Z,50.23
2019-03-01T12:22:54.812Z,52.13
2019-03-01T12:25:23.773Z,51.53
2019-03-01T12:27:52.701Z,52.53
2019-03-01T12:30:22.906Z,53.37
2019-03-01T12:32:52.030Z,54.50
2019-03-01T12:35:20.629Z,61.77
2019-03-01T12:37:48.898Z,56.17
2019-03-01T12:40:27.524Z,60.37
2019-03-01T12:42:56.760Z,58.33
2019-03-01T12:45:25.027Z,115.67
2019-03-01T12:47:53.287Z,62.60
2019-03-01T12:50:21.522Z,63.03
2019-03-01T12:52:49.690Z,63.53
2019-03-01T12:55:19.712Z,65.53
2019-03-01T12:57:48.194Z,65.67
2019-03-01T13:00:24.157Z,66.67
2019-03-01T13:02:52.316Z,67.87
2019-03-01T13:05:20.650Z,69.00
2019-03-01T13:07:51.631Z,71.20
2019-03-01T13:10:24.552Z,72.80
2019-03-01T13:12:54.597Z,70.20
2019-03-01T13:15:22.712Z,69.77
2019-03-01T13:17:50.887Z,68.37
2019-03-01T13:20:19.323Z,73.73
2019-03-01T13:22:47.552Z,73.63
2019-03-01T13:25:15.874Z,75.50
2019-03-01T13:27:44.079Z,77.53
2019-03-01T13:30:14.110Z,71.90
2019-03-01T13:32:42.275Z,74.80
2019-03-01T13:35:12.509Z,70.70
2019-03-01T13:37:41.180Z,73.37
2019-03-01T13:40:15.967Z,72.20
2019-03-01T13:42:47.267Z,75.73
2019-03-01T13:45:19.345Z,73.30
2019-03-01T13:47:47.651Z,76.53
2019-03-01T13:50:17.137Z,75.97
2019-03-01T13:52:45.378Z,180.53
2019-03-01T13:55:18.635Z,81.20
2019-03-01T13:57:46.023Z,114.93
2019-03-01T14:00:18.107Z,162.97
2019-03-01T14:02:47.083Z,142.80
2019-03-01T14:05:17.382Z,139.10
2019-03-01T14:07:45.875Z,106.03
2019-03-01T14:10:17.676Z,93.10
2019-03-01T14:12:49.804Z,93.73
2019-03-01T14:15:18.218Z,91.13
2019-03-01T14:17:48.300Z,94.77
2019-03-01T14:20:20.583Z,105.30
2019-03-01T14:22:50.629Z,101.13
2019-03-01T14:25:19.399Z,91.43
2019-03-01T14:27:48.030Z,93.70
2019-03-01T14:30:18.504Z,111.07
2019-03-01T14:32:47.718Z,105.67
2019-03-01T14:35:16.272Z,123.67
2019-03-01T14:37:44.517Z,174.17
2019-03-01T14:40:18.951Z,215.30
2019-03-01T14:42:47.427Z,206.00
2019-03-01T14:45:17.602Z,131.40
2019-03-01T14:47:49.853Z,93.53
2019-03-01T14:50:19.489Z,93.67
2019-03-01T14:52:48.252Z,107.87
2019-03-01T14:55:23.275Z,121.60
2019-03-01T14:58:00.236Z,150.50
2019-03-01T15:00:34.148Z,154.03
2019-03-01T15:03:06.885Z,121.33
2019-03-01T15:05:38.708Z,126.00
2019-03-01T15:08:07.771Z,88.17
2019-03-01T15:10:38.497Z,110.87
2019-03-01T15:13:08.679Z,111.50
2019-03-01T15:15:36.934Z,111.47
2019-03-01T15:18:05.880Z,113.33
2019-03-01T15:20:34.714Z,111.33
2019-03-01T15:23:03.069Z,87.10
2019-03-01T15:25:32.527Z,94.87
2019-03-01T15:28:02.799Z,90.80
2019-03-01T15:30:31.556Z,94.10
2019-03-01T15:33:02.093Z,97.57
2019-03-01T15:35:30.755Z,99.50
2019-03-01T15:38:00.013Z,349.33
2019-03-01T15:40:31.459Z,272.07
2019-03-01T15:42:59.337Z,134.17
2019-03-01T15:45:27.887Z,182.70
2019-03-01T15:47:58.810Z,144.33
2019-03-01T15:50:28.523Z,159.13
2019-03-01T15:52:57.313Z,141.27
2019-03-01T15:55:26.659Z,121.97
2019-03-01T15:57:56.459Z,146.13
2019-03-01T16:00:29.456Z,145.43
2019-03-01T16:02:57.241Z,140.20
2019-03-01T16:05:25.438Z,142.53
2019-03-01T16:07:55.595Z,145.23
2019-03-01T16:10:24.032Z,268.97
2019-03-01T16:12:52.845Z,188.03
2019-03-01T16:15:22.892Z,133.73
2019-03-01T16:17:57.632Z,122.50
2019-03-01T16:20:28.423Z,122.40
2019-03-01T16:22:57.263Z,143.33
2019-03-01T16:25:27.774Z,134.37
2019-03-01T16:27:59.284Z,132.27
2019-03-01T16:30:33.066Z,132.43
2019-03-01T16:33:04.147Z,133.07
2019-03-01T16:35:33.811Z,133.33
2019-03-01T16:38:06.292Z,142.63
2019-03-01T16:40:36.117Z,140.73
2019-03-01T16:43:04.968Z,143.27
2019-03-01T16:45:36.152Z,127.40
2019-03-01T16:48:05.302Z,129.10
2019-03-01T16:50:35.298Z,145.83
2019-03-01T16:53:05.543Z,172.27
2019-03-01T16:55:38.993Z,149.30
2019-03-01T16:58:07.435Z,140.50
2019-03-01T17:00:36.468Z,166.13
2019-03-01T17:03:06.410Z,138.10
2019-03-01T17:05:35.687Z,148.10
2019-03-01T17:08:08.369Z,115.17
2019-03-01T17:10:37.320Z,116.93
2019-03-01T17:13:07.837Z,117.83
2019-03-01T17:15:36.486Z,135.00
2019-03-01T17:18:11.103Z,118.70
2019-03-01T17:20:38.342Z,252.87
2019-03-01T17:23:07.365Z,233.60
2019-03-01T17:25:36.418Z,285.90
2019-03-01T17:28:05.161Z,320.03
2019-03-01T17:30:34.322Z,243.27
2019-03-01T17:33:03.005Z,178.50
2019-03-01T17:35:31.820Z,162.03
2019-03-01T17:38:00.581Z,104.13
2019-03-01T17:40:32.472Z,117.57
2019-03-01T17:42:59.800Z,83.50
2019-03-01T17:45:29.393Z,75.20
2019-03-01T17:47:58.197Z,57.03
2019-03-01T17:50:27.115Z,65.20
2019-03-01T17:52:59.870Z,64.07
2019-03-01T17:55:29.449Z,68.53
2019-03-01T17:57:58.245Z,193.07
2019-03-01T18:00:38.439Z,113.93
2019-03-01T18:03:08.792Z,115.53
2019-03-01T18:05:40.224Z,112.80
2019-03-01T18:08:07.714Z,112.20
2019-03-01T18:10:36.591Z,136.97
2019-03-01T18:13:05.304Z,120.83
2019-03-01T18:15:33.783Z,131.87
2019-03-01T18:18:02.677Z,98.37
2019-03-01T18:20:34.019Z,102.10
2019-03-01T18:23:02.345Z,83.90
2019-03-01T18:25:31.891Z,77.47
2019-03-01T18:28:00.333Z,70.70
2019-03-01T18:30:32.445Z,69.97
2019-03-01T18:33:00.645Z,69.80
2019-03-01T18:35:28.810Z,76.77
2019-03-01T18:37:57.245Z,83.73
2019-03-01T18:40:25.720Z,81.37
2019-03-01T18:42:54.053Z,79.53
2019-03-01T18:45:23.210Z,76.50
2019-03-01T18:47:51.371Z,83.37
2019-03-01T18:50:21.215Z,79.33
2019-03-01T18:52:53.183Z,81.83
2019-03-01T18:55:21.007Z,107.10
2019-03-01T18:57:49.759Z,100.57
2019-03-01T19:00:23.269Z,99.70
2019-03-01T19:02:52.721Z,112.40
2019-03-01T19:05:21.136Z,93.93
2019-03-01T19:07:49.663Z,102.93
2019-03-01T19:10:24.005Z,108.20
2019-03-01T19:12:51.823Z,95.80
2019-03-01T19:15:20.120Z,69.50
2019-03-01T19:17:48.493Z,98.87
2019-03-01T19:20:18.117Z,92.27
2019-03-01T19:22:46.547Z,129.43
2019-03-01T19:25:15.280Z,114.97
2019-03-01T19:27:43.667Z,87.07
2019-03-01T19:30:14.358Z,135.63
2019-03-01T19:32:43.086Z,79.00
2019-03-01T19:35:11.704Z,123.03
2019-03-01T19:37:40.018Z,266.17
2019-03-01T19:40:12.825Z,148.10
2019-03-01T19:42:41.158Z,119.87
2019-03-01T19:45:10.736Z,102.00
2019-03-01T19:47:39.136Z,111.10
2019-03-01T19:50:08.923Z,130.60
2019-03-01T19:52:37.427Z,131.93
2019-03-01T19:55:08.034Z,118.03
2019-03-01T19:57:37.922Z,155.70
2019-03-01T20:00:16.325Z,131.37
2019-03-01T20:02:44.858Z,82.73
2019-03-01T20:05:15.437Z,113.87
2019-03-01T20:07:44.026Z,96.43
2019-03-01T20:10:15.143Z,88.90
2019-03-01T20:12:43.535Z,129.73
2019-03-01T20:15:20.522Z,260.67
2019-03-01T20:17:48.929Z,156.03
2019-03-01T20:20:23.830Z,95.07
2019-03-01T20:22:54.354Z,95.07
2019-03-01T20:25:22.731Z,151.13
2019-03-01T20:27:51.012Z,114.60
2019-03-01T20:30:20.825Z,108.87
2019-03-01T20:32:51.202Z,97.83
2019-03-01T20:35:19.303Z,88.47
2019-03-01T20:37:47.647Z,83.57
2019-03-01T20:40:16.076Z,73.23
2019-03-01T20:42:44.736Z,74.93
2019-03-01T20:45:25.839Z,74.73
2019-03-01T20:47:53.733Z,55.47
2019-03-01T20:50:22.968Z,52.47
2019-03-01T20:52:51.162Z,57.93
2019-03-01T20:55:19.957Z,51.63
2019-03-01T20:57:48.361Z,66.40
2019-03-01T21:00:18.755Z,87.17
2019-03-01T21:02:50.341Z,88.30
2019-03-01T21:05:17.668Z,68.97
2019-03-01T21:07:48.213Z,63.00
2019-03-01T21:10:20.164Z,79.67
2019-03-01T21:12:48.666Z,63.00
2019-03-01T21:15:17.704Z,79.57
2019-03-01T21:17:46.400Z,49.93
2019-03-01T21:20:15.954Z,65.80
2019-03-01T21:22:45.425Z,64.67
2019-03-01T21:25:14.658Z,49.47
2019-03-01T21:27:42.887Z,50.13
2019-03-01T21:30:12.459Z,44.27
2019-03-01T21:32:40.949Z,47.53
2019-03-01T21:35:10.506Z,82.30
2019-03-01T21:37:39.411Z,49.47
2019-03-01T21:40:09.505Z,53.13
2019-03-01T21:42:37.717Z,73.50
2019-03-01T21:45:07.889Z,69.03
2019-03-01T21:47:36.433Z,78.43
2019-03-01T21:50:07.502Z,82.93
2019-03-01T21:52:41.933Z,94.33
2019-03-01T21:55:41.136Z,64.10
2019-03-01T21:58:11.326Z,63.07
2019-03-01T22:00:40.209Z,49.97
2019-03-01T22:03:28.123Z,48.17
2019-03-01T22:05:57.588Z,53.90
2019-03-01T22:08:25.807Z,51.50
2019-03-01T22:10:56.356Z,53.77
2019-03-01T22:13:24.566Z,55.97
2019-03-01T22:15:52.969Z,43.00
2019-03-01T22:18:23.636Z,42.57
2019-03-01T22:20:51.695Z,49.70
2019-03-01T22:23:20.091Z,44.07
2019-03-01T22:25:48.635Z,47.93
2019-03-01T22:28:17.057Z,51.20
2019-03-01T22:30:45.230Z,51.97
2019-03-01T22:33:13.603Z,56.97
2019-03-01T22:35:43.576Z,44.33
2019-03-01T22:38:11.917Z,44.10
2019-03-01T22:40:40.056Z,45.23
2019-03-01T22:43:08.693Z,48.57
2019-03-01T22:45:36.925Z,46.67
2019-03-01T22:48:08.514Z,55.80
2019-03-01T22:50:35.659Z,51.70
2019-03-01T22:53:06.597Z,53.83
2019-03-01T22:55:36.727Z,49.67
2019-03-01T22:58:05.597Z,44.67
2019-03-01T23:00:54.537Z,42.07
2019-03-01T23:03:25.037Z,31.70
2019-03-01T23:08:49.335Z,32.00
2019-03-01T23:11:17.655Z,31.93
2019-03-01T23:13:45.824Z,32.20
2019-03-01T23:16:15.861Z,36.87
2019-03-01T23:18:43.884Z,36.73
2019-03-01T23:21:12.440Z,37.00
2019-03-01T23:23:40.845Z,64.10
2019-03-01T23:26:09.000Z,57.10
2019-03-01T23:28:40.528Z,44.50
2019-03-01T23:31:07.405Z,36.40
2019-03-01T23:33:35.833Z,37.03
2019-03-01T23:36:04.068Z,38.40
2019-03-01T23:38:32.557Z,39.27
2019-03-01T23:41:00.988Z,44.17
2019-03-01T23:43:30.828Z,38.40
2019-03-01T23:45:59.271Z,39.33
2019-03-01T23:48:27.425Z,39.63
2019-03-01T23:50:55.579Z,38.67
2019-03-01T23:53:23.763Z,39.47
2019-03-01T23:55:54.688Z,39.97
2019-03-01T23:58:21.810Z,38.83
